Time;durP1;ratioP1;P1;durP2;ratioP2;P2;SDS_P1;SDS_P2;PMS_P1;PMS_P2;Temp;Humidity;BMP_temperature;BMP_pressure;BME280_temperature;BME280_humidity;BME280_pressure;Samples;Min_cycle;Max_cycle;Signal;HPM_P1;HPM_P2
2023/12/31 00:01:59;;;;;;;2.03;1.40;;;;;;;;;;5026734;28;20057;-57
2023/12/31 00:04:25;;;;;;;2.47;1.60;;;;;;;;;;5030611;28;20049;-57
2023/12/31 00:06:51;;;;;;;1.92;1.50;;;;;;;;;;5024365;28;20109;-60
2023/12/31 00:09:17;;;;;;;3.03;1.63;;;;;;;;;;5029262;28;20535;-59
2023/12/31 00:11:43;;;;;;;2.70;1.60;;;;;;;;;;5031560;28;20415;-61
2023/12/31 00:14:09;;;;;;;2.05;1.42;;;;;;;;;;5028492;28;20484;-60
2023/12/31 00:16:35;;;;;;;2.42;1.58;;;;;;;;;;5029682;28;20041;-58
2023/12/31 00:19:02;;;;;;;2.55;1.60;;;;;;;;;;5028524;28;20527;-57
2023/12/31 00:21:28;;;;;;;3.30;1.27;;;;;;;;;;5026415;28;20036;-59
2023/12/31 00:23:54;;;;;;;1.73;1.30;;;;;;;;;;5023360;28;20042;-59
2023/12/31 00:26:20;;;;;;;2.63;1.45;;;;;;;;;;5028679;28;20056;-57
2023/12/31 00:28:47;;;;;;;1.52;1.40;;;;;;;;;;5012716;28;20528;-58
2023/12/31 00:31:13;;;;;;;1.77;1.33;;;;;;;;;;5025395;28;20037;-58
2023/12/31 00:33:40;;;;;;;3.28;1.40;;;;;;;;;;5023996;28;20037;-58
2023/12/31 00:36:06;;;;;;;1.90;1.08;;;;;;;;;;5022725;28;20054;-59
2023/12/31 00:38:32;;;;;;;2.67;1.40;;;;;;;;;;5021080;28;20037;-59
2023/12/31 00:41:00;;;;;;;2.10;1.40;;;;;;;;;;5027885;28;20044;-60
2023/12/31 00:43:26;;;;;;;1.48;1.23;;;;;;;;;;5022119;28;20037;-60
2023/12/31 00:45:52;;;;;;;1.33;1.10;;;;;;;;;;5028630;28;20033;-60
2023/12/31 00:48:18;;;;;;;2.25;1.10;;;;;;;;;;5031625;28;20037;-59
2023/12/31 00:50:44;;;;;;;3.65;1.52;;;;;;;;;;5023189;28;20041;-59
2023/12/31 00:53:10;;;;;;;2.80;1.27;;;;;;;;;;5027021;28;20053;-58
2023/12/31 00:55:38;;;;;;;2.72;1.52;;;;;;;;;;5024286;28;20033;-57
2023/12/31 00:58:05;;;;;;;1.88;1.40;;;;;;;;;;5025570;28;20045;-60
2023/12/31 01:00:32;;;;;;;1.63;1.30;;;;;;;;;;5031082;28;20600;-58
2023/12/31 01:02:58;;;;;;;2.15;1.17;;;;;;;;;;4998870;28;20025;-60
2023/12/31 01:05:24;;;;;;;1.98;1.42;;;;;;;;;;5034269;28;20037;-57
2023/12/31 01:07:50;;;;;;;1.48;1.10;;;;;;;;;;5032222;28;20507;-57
2023/12/31 01:10:16;;;;;;;2.30;1.10;;;;;;;;;;5030727;28;20048;-58
2023/12/31 01:12:42;;;;;;;1.70;1.10;;;;;;;;;;5032945;28;20503;-57
2023/12/31 01:15:09;;;;;;;1.25;1.02;;;;;;;;;;5031761;28;20033;-58
2023/12/31 01:17:35;;;;;;;1.42;1.10;;;;;;;;;;5029671;28;20041;-58
2023/12/31 01:20:04;;;;;;;2.45;1.40;;;;;;;;;;5026814;28;20042;-57
2023/12/31 01:22:30;;;;;;;1.85;1.45;;;;;;;;;;5027111;28;20046;-58
2023/12/31 01:24:56;;;;;;;1.52;1.17;;;;;;;;;;5031143;28;20500;-58
2023/12/31 01:27:22;;;;;;;2.20;0.98;;;;;;;;;;5031030;28;20033;-57
2023/12/31 01:29:49;;;;;;;1.30;1.10;;;;;;;;;;5027533;28;20048;-58
2023/12/31 01:32:15;;;;;;;2.00;1.35;;;;;;;;;;5031797;28;20025;-57
2023/12/31 01:34:41;;;;;;;2.97;1.38;;;;;;;;;;5029157;28;20037;-58
2023/12/31 01:37:07;;;;;;;2.33;1.40;;;;;;;;;;5014082;28;20029;-57
2023/12/31 01:39:33;;;;;;;1.92;1.20;;;;;;;;;;5032621;28;20033;-57
2023/12/31 01:42:00;;;;;;;1.65;1.10;;;;;;;;;;5032504;28;20037;-57
2023/12/31 01:44:27;;;;;;;4.68;1.15;;;;;;;;;;5032876;28;20393;-56
2023/12/31 01:46:54;;;;;;;1.13;1.00;;;;;;;;;;5030891;28;20021;-56
2023/12/31 01:49:21;;;;;;;1.65;1.00;;;;;;;;;;5030813;28;20064;-58
2023/12/31 01:51:48;;;;;;;0.90;0.90;;;;;;;;;;5031058;28;20072;-57
2023/12/31 01:54:14;;;;;;;1.30;1.10;;;;;;;;;;5031753;28;20037;-58
2023/12/31 01:56:41;;;;;;;1.70;1.13;;;;;;;;;;5031473;28;20029;-57
2023/12/31 01:59:08;;;;;;;1.38;1.02;;;;;;;;;;5029238;28;20064;-57
2023/12/31 02:01:36;;;;;;;1.75;0.98;;;;;;;;;;5033640;28;20050;-58
2023/12/31 02:04:02;;;;;;;1.83;1.00;;;;;;;;;;5030933;28;20038;-58
2023/12/31 02:06:28;;;;;;;1.48;1.17;;;;;;;;;;5030053;28;20385;-59
2023/12/31 02:08:54;;;;;;;2.47;1.15;;;;;;;;;;5031574;28;20049;-58
2023/12/31 02:11:21;;;;;;;1.58;1.35;;;;;;;;;;5029524;28;20037;-58
2023/12/31 02:13:47;;;;;;;2.25;1.30;;;;;;;;;;5029639;28;20383;-57
2023/12/31 02:16:14;;;;;;;2.17;1.40;;;;;;;;;;5031290;28;20025;-58
2023/12/31 02:18:41;;;;;;;1.88;1.20;;;;;;;;;;5029394;28;20029;-57
2023/12/31 02:21:08;;;;;;;2.22;1.38;;;;;;;;;;5030542;28;20041;-57
2023/12/31 02:23:36;;;;;;;2.08;1.30;;;;;;;;;;5028660;28;20054;-57
2023/12/31 02:26:10;;;;;;;2.40;1.30;;;;;;;;;;5031568;28;20036;-58
2023/12/31 02:28:36;;;;;;;3.97;1.80;;;;;;;;;;5027241;28;20387;-58
2023/12/31 02:31:04;;;;;;;1.92;1.30;;;;;;;;;;5030562;28;20476;-57
2023/12/31 02:33:30;;;;;;;2.17;1.73;;;;;;;;;;5028291;28;20045;-56
2023/12/31 02:35:57;;;;;;;1.52;1.30;;;;;;;;;;5028461;28;20049;-59
2023/12/31 02:38:23;;;;;;;1.92;1.30;;;;;;;;;;5029885;28;20040;-58
2023/12/31 02:40:49;;;;;;;2.25;1.10;;;;;;;;;;5030175;28;20052;-57
2023/12/31 02:43:15;;;;;;;1.90;1.00;;;;;;;;;;5029412;28;20366;-59
2023/12/31 02:45:41;;;;;;;1.52;1.00;;;;;;;;;;5031407;28;20388;-56
2023/12/31 02:48:08;;;;;;;1.30;1.10;;;;;;;;;;5047546;28;20403;-57
2023/12/31 02:50:34;;;;;;;2.10;1.30;;;;;;;;;;5032895;28;20029;-58
2023/12/31 02:53:00;;;;;;;2.08;1.10;;;;;;;;;;5027382;28;20033;-59
2023/12/31 02:55:26;;;;;;;1.45;1.05;;;;;;;;;;5030003;28;20052;-59
2023/12/31 02:57:52;;;;;;;1.65;1.30;;;;;;;;;;5030225;28;20048;-58
2023/12/31 03:00:18;;;;;;;1.48;1.23;;;;;;;;;;5031230;28;20052;-57
2023/12/31 03:02:45;;;;;;;1.42;1.17;;;;;;;;;;5029395;28;20033;-57
2023/12/31 03:05:12;;;;;;;1.70;1.20;;;;;;;;;;5031754;28;20041;-57
2023/12/31 03:07:38;;;;;;;2.10;1.35;;;;;;;;;;5029505;28;20029;-60
2023/12/31 03:10:06;;;;;;;1.92;1.23;;;;;;;;;;5029876;28;20068;-56
2023/12/31 03:12:32;;;;;;;1.80;1.40;;;;;;;;;;5034078;28;20021;-59
2023/12/31 03:14:58;;;;;;;1.85;1.30;;;;;;;;;;5029540;28;20391;-57
2023/12/31 03:17:24;;;;;;;2.40;1.80;;;;;;;;;;5031191;28;20034;-57
2023/12/31 03:19:50;;;;;;;1.40;1.17;;;;;;;;;;5028137;28;20068;-58
2023/12/31 03:22:17;;;;;;;1.90;1.30;;;;;;;;;;5027303;28;20037;-58
2023/12/31 03:24:43;;;;;;;1.65;1.33;;;;;;;;;;5026826;28;20501;-59
2023/12/31 03:27:11;;;;;;;1.73;1.40;;;;;;;;;;5024219;28;20469;-58
2023/12/31 03:29:37;;;;;;;1.80;1.17;;;;;;;;;;5028397;28;20515;-58
2023/12/31 03:32:04;;;;;;;1.23;1.10;;;;;;;;;;5026018;28;20052;-59
2023/12/31 03:34:30;;;;;;;1.83;0.95;;;;;;;;;;5023652;28;20041;-56
2023/12/31 03:36:56;;;;;;;1.40;1.10;;;;;;;;;;5024615;28;20602;-59
2023/12/31 03:39:23;;;;;;;2.08;1.40;;;;;;;;;;5028894;28;20041;-57
2023/12/31 03:41:49;;;;;;;1.75;1.05;;;;;;;;;;5015320;28;20385;-59
2023/12/31 03:44:15;;;;;;;1.30;0.93;;;;;;;;;;5028297;28;20033;-59
2023/12/31 03:46:42;;;;;;;2.22;1.08;;;;;;;;;;5032391;28;20037;-59
2023/12/31 03:49:08;;;;;;;3.50;1.40;;;;;;;;;;5030433;28;20056;-59
2023/12/31 03:51:34;;;;;;;1.10;1.00;;;;;;;;;;5032453;28;20475;-58
2023/12/31 03:54:00;;;;;;;1.75;1.00;;;;;;;;;;5032394;22;20046;-58
2023/12/31 03:56:26;;;;;;;1.48;1.00;;;;;;;;;;4993399;28;20034;-59
2023/12/31 03:58:53;;;;;;;1.83;1.13;;;;;;;;;;4995550;28;20030;-58
2023/12/31 04:01:19;;;;;;;1.85;1.40;;;;;;;;;;4993207;28;20046;-58
2023/12/31 04:03:45;;;;;;;1.38;1.17;;;;;;;;;;4994970;28;20026;-60
2023/12/31 04:06:11;;;;;;;1.65;1.25;;;;;;;;;;4999003;28;20394;-60
2023/12/31 04:08:37;;;;;;;2.45;1.30;;;;;;;;;;4995896;28;20520;-61
2023/12/31 04:11:03;;;;;;;2.70;1.20;;;;;;;;;;4990580;28;20042;-60
2023/12/31 04:13:29;;;;;;;2.30;1.20;;;;;;;;;;4996196;28;20042;-58
2023/12/31 04:15:56;;;;;;;1.75;1.00;;;;;;;;;;4993772;28;20046;-61
2023/12/31 04:18:22;;;;;;;1.98;1.30;;;;;;;;;;4993023;28;20053;-61
2023/12/31 04:20:48;;;;;;;1.25;1.00;;;;;;;;;;4998062;28;20050;-61
2023/12/31 04:23:14;;;;;;;1.33;1.15;;;;;;;;;;4991638;28;20658;-60
2023/12/31 04:25:40;;;;;;;1.17;0.90;;;;;;;;;;4992026;28;20556;-60
2023/12/31 04:28:06;;;;;;;1.10;0.93;;;;;;;;;;4996775;28;20059;-60
2023/12/31 04:30:32;;;;;;;1.20;1.10;;;;;;;;;;4994248;28;20037;-60
2023/12/31 04:32:59;;;;;;;2.28;1.10;;;;;;;;;;4992158;28;20034;-60
2023/12/31 04:35:25;;;;;;;2.65;1.52;;;;;;;;;;4998019;28;20049;-60
2023/12/31 04:37:51;;;;;;;1.33;1.00;;;;;;;;;;4995029;28;20046;-59
2023/12/31 04:40:17;;;;;;;2.00;1.02;;;;;;;;;;4993231;28;20021;-59
2023/12/31 04:42:43;;;;;;;1.67;1.13;;;;;;;;;;4996113;28;20030;-60
2023/12/31 04:45:10;;;;;;;1.00;0.90;;;;;;;;;;4998081;28;20108;-60
2023/12/31 04:47:36;;;;;;;3.05;1.20;;;;;;;;;;4995613;28;20042;-59
2023/12/31 04:50:05;;;;;;;0.90;0.80;;;;;;;;;;4995621;28;20414;-59
2023/12/31 04:52:32;;;;;;;2.35;1.17;;;;;;;;;;4995565;28;20046;-58
2023/12/31 04:54:58;;;;;;;1.65;1.20;;;;;;;;;;4998483;28;20045;-59
2023/12/31 04:57:24;;;;;;;0.95;0.80;;;;;;;;;;4991310;28;20494;-60
2023/12/31 04:59:51;;;;;;;1.38;1.10;;;;;;;;;;4983003;28;20046;-60
2023/12/31 05:02:17;;;;;;;1.10;0.98;;;;;;;;;;4997207;28;20030;-60
2023/12/31 05:04:43;;;;;;;1.80;1.10;;;;;;;;;;5000036;28;20061;-59
2023/12/31 05:07:11;;;;;;;1.20;1.00;;;;;;;;;;4995909;28;20053;-59
2023/12/31 05:09:37;;;;;;;1.27;1.00;;;;;;;;;;4996729;28;20038;-59
2023/12/31 05:12:03;;;;;;;1.10;0.98;;;;;;;;;;4999877;28;20034;-59
2023/12/31 05:14:29;;;;;;;1.58;1.00;;;;;;;;;;4999064;28;20053;-58
2023/12/31 05:16:55;;;;;;;1.88;1.30;;;;;;;;;;4996673;28;20038;-59
2023/12/31 05:19:22;;;;;;;1.17;0.95;;;;;;;;;;5000786;28;20026;-59
2023/12/31 05:21:48;;;;;;;1.58;1.13;;;;;;;;;;4996572;28;20049;-58
2023/12/31 05:24:14;;;;;;;2.15;1.30;;;;;;;;;;4999046;28;20054;-59
2023/12/31 05:26:40;;;;;;;3.47;2.17;;;;;;;;;;5000099;28;20064;-58
2023/12/31 05:29:06;;;;;;;2.22;1.60;;;;;;;;;;5001659;28;20050;-59
2023/12/31 05:31:32;;;;;;;6.05;3.50;;;;;;;;;;4997920;28;20045;-57
2023/12/31 05:33:58;;;;;;;1.83;1.40;;;;;;;;;;4995260;28;20042;-58
2023/12/31 05:36:24;;;;;;;2.50;1.50;;;;;;;;;;4989882;28;20041;-58
2023/12/31 05:38:51;;;;;;;1.55;1.17;;;;;;;;;;4995994;28;20049;-58
2023/12/31 05:41:17;;;;;;;1.77;1.20;;;;;;;;;;4991733;28;20054;-59
2023/12/31 05:43:43;;;;;;;2.60;0.98;;;;;;;;;;4999134;28;20924;-59
2023/12/31 05:46:09;;;;;;;1.92;1.25;;;;;;;;;;4998863;28;20096;-59
2023/12/31 05:48:35;;;;;;;1.30;1.08;;;;;;;;;;4989581;28;20046;-59
2023/12/31 05:51:01;;;;;;;1.45;1.02;;;;;;;;;;4992290;28;20046;-59
2023/12/31 05:53:27;;;;;;;1.65;1.10;;;;;;;;;;4995117;28;20049;-59
2023/12/31 05:55:53;;;;;;;1.10;1.00;;;;;;;;;;4993006;28;20022;-60
2023/12/31 05:58:19;;;;;;;3.35;1.80;;;;;;;;;;4991710;28;20038;-59
2023/12/31 06:00:45;;;;;;;1.55;1.20;;;;;;;;;;4990190;28;20037;-59
2023/12/31 06:03:11;;;;;;;1.83;1.30;;;;;;;;;;4990744;28;20049;-59
2023/12/31 06:05:37;;;;;;;1.70;1.13;;;;;;;;;;4994725;28;20041;-59
2023/12/31 06:08:04;;;;;;;1.50;1.17;;;;;;;;;;4994124;28;20042;-59
2023/12/31 06:10:30;;;;;;;1.10;1.00;;;;;;;;;;4992755;28;20046;-59
2023/12/31 06:12:56;;;;;;;1.95;1.10;;;;;;;;;;4992597;28;20057;-58
2023/12/31 06:15:22;;;;;;;2.80;1.45;;;;;;;;;;4995202;28;20046;-59
2023/12/31 06:17:48;;;;;;;2.10;1.40;;;;;;;;;;4997168;28;20037;-58
2023/12/31 06:20:14;;;;;;;1.63;1.40;;;;;;;;;;4991743;28;20524;-57
2023/12/31 06:22:41;;;;;;;2.03;1.30;;;;;;;;;;4994370;28;20045;-56
2023/12/31 06:25:07;;;;;;;1.98;1.45;;;;;;;;;;4991197;28;20057;-59
2023/12/31 06:27:33;;;;;;;2.30;1.75;;;;;;;;;;4976205;28;20035;-57
2023/12/31 06:30:00;;;;;;;2.15;1.50;;;;;;;;;;4994206;28;20506;-58
2023/12/31 06:32:26;;;;;;;1.83;1.35;;;;;;;;;;4995734;28;20421;-57
2023/12/31 06:34:52;;;;;;;3.00;1.73;;;;;;;;;;4992434;28;20402;-57
2023/12/31 06:37:18;;;;;;;2.00;1.40;;;;;;;;;;5009993;28;20025;-56
2023/12/31 06:39:44;;;;;;;1.98;1.50;;;;;;;;;;4992017;28;20050;-59
2023/12/31 06:42:10;;;;;;;2.03;1.40;;;;;;;;;;4993662;28;20097;-58
2023/12/31 06:44:37;;;;;;;3.35;1.70;;;;;;;;;;4990206;28;20042;-59
2023/12/31 06:47:03;;;;;;;1.80;1.42;;;;;;;;;;4993407;28;20517;-58
2023/12/31 06:49:29;;;;;;;2.65;1.35;;;;;;;;;;4985604;28;20406;-56
2023/12/31 06:51:55;;;;;;;3.10;1.35;;;;;;;;;;4989216;28;20038;-56
2023/12/31 06:54:21;;;;;;;3.38;1.55;;;;;;;;;;4990930;28;20049;-58
2023/12/31 06:56:48;;;;;;;3.22;1.70;;;;;;;;;;4994787;28;20038;-58
2023/12/31 06:59:14;;;;;;;3.30;2.42;;;;;;;;;;4989933;28;20161;-59
2023/12/31 07:01:41;;;;;;;3.03;2.00;;;;;;;;;;4972866;28;20034;-59
2023/12/31 07:04:07;;;;;;;3.92;2.13;;;;;;;;;;4990647;28;20521;-64
2023/12/31 07:06:33;;;;;;;2.83;1.90;;;;;;;;;;4990704;28;20065;-58
2023/12/31 07:08:59;;;;;;;1.90;1.50;;;;;;;;;;4989937;28;20046;-59
2023/12/31 07:11:25;;;;;;;2.58;1.70;;;;;;;;;;4994036;28;20429;-57
2023/12/31 07:13:52;;;;;;;3.63;1.88;;;;;;;;;;4993541;28;20061;-58
2023/12/31 07:16:18;;;;;;;2.97;2.03;;;;;;;;;;4994106;28;20374;-58
2023/12/31 07:18:44;;;;;;;3.95;2.30;;;;;;;;;;4992090;28;20042;-58
2023/12/31 07:21:10;;;;;;;2.47;1.77;;;;;;;;;;4990839;28;20065;-58
2023/12/31 07:23:36;;;;;;;2.92;1.60;;;;;;;;;;4992102;28;20051;-57
2023/12/31 07:26:05;;;;;;;3.15;1.85;;;;;;;;;;4988687;28;20034;-55
2023/12/31 07:28:32;;;;;;;1.80;1.50;;;;;;;;;;4992471;28;20689;-58
2023/12/31 07:30:58;;;;;;;3.03;1.60;;;;;;;;;;4989665;28;20043;-56
2023/12/31 07:33:24;;;;;;;3.65;1.95;;;;;;;;;;4989477;28;20177;-58
2023/12/31 07:35:50;;;;;;;3.17;2.13;;;;;;;;;;4989126;28;20054;-56
2023/12/31 07:38:17;;;;;;;3.55;2.05;;;;;;;;;;4990125;28;20042;-60
2023/12/31 07:40:43;;;;;;;2.65;1.75;;;;;;;;;;4993200;28;20425;-58
2023/12/31 07:43:09;;;;;;;5.10;1.63;;;;;;;;;;4991255;28;20050;-56
2023/12/31 07:45:35;;;;;;;4.53;2.28;;;;;;;;;;4990195;28;20413;-56
2023/12/31 07:48:02;;;;;;;3.88;2.10;;;;;;;;;;4989027;28;20061;-56
2023/12/31 07:50:28;;;;;;;3.22;1.90;;;;;;;;;;4994088;28;20049;-58
2023/12/31 07:52:54;;;;;;;4.88;2.95;;;;;;;;;;4994867;28;20057;-55
2023/12/31 07:55:21;;;;;;;6.78;3.30;;;;;;;;;;4994303;28;20042;-56
2023/12/31 07:57:47;;;;;;;4.03;2.40;;;;;;;;;;4995586;28;20065;-56
2023/12/31 08:00:13;;;;;;;3.53;2.63;;;;;;;;;;4990763;28;20049;-56
2023/12/31 08:02:40;;;;;;;5.75;3.15;;;;;;;;;;4993779;28;20046;-55
2023/12/31 08:05:06;;;;;;;3.83;2.60;;;;;;;;;;4990770;28;20030;-55
2023/12/31 08:07:32;;;;;;;5.90;3.00;;;;;;;;;;4998626;28;20042;-56
2023/12/31 08:09:59;;;;;;;4.97;3.00;;;;;;;;;;4993291;28;20046;-56
2023/12/31 08:12:25;;;;;;;2.35;1.88;;;;;;;;;;4993671;28;20034;-56
2023/12/31 08:14:51;;;;;;;2.83;1.88;;;;;;;;;;4992038;28;20046;-57
2023/12/31 08:17:18;;;;;;;4.22;1.52;;;;;;;;;;4994211;28;20034;-56
2023/12/31 08:19:44;;;;;;;2.65;1.77;;;;;;;;;;4990152;28;20049;-57
2023/12/31 08:22:10;;;;;;;3.47;1.95;;;;;;;;;;4997967;28;20395;-56
2023/12/31 08:24:36;;;;;;;3.25;1.52;;;;;;;;;;4991959;28;20045;-56
2023/12/31 08:27:03;;;;;;;2.05;1.63;;;;;;;;;;4999094;28;20061;-55
2023/12/31 08:29:29;;;;;;;3.40;2.40;;;;;;;;;;4996630;28;20046;-56
2023/12/31 08:31:55;;;;;;;4.53;2.92;;;;;;;;;;4997934;28;20045;-57
2023/12/31 08:34:21;;;;;;;3.63;2.80;;;;;;;;;;4995780;28;20058;-55
2023/12/31 08:36:47;;;;;;;3.95;2.20;;;;;;;;;;4997653;28;20057;-57
2023/12/31 08:39:13;;;;;;;2.25;1.65;;;;;;;;;;5001487;28;20049;-56
2023/12/31 08:41:39;;;;;;;1.98;1.48;;;;;;;;;;4996995;28;20038;-56
2023/12/31 08:44:05;;;;;;;1.85;1.65;;;;;;;;;;4999339;28;20050;-56
2023/12/31 08:46:32;;;;;;;1.95;1.40;;;;;;;;;;4996382;28;20030;-56
2023/12/31 08:48:58;;;;;;;2.03;1.50;;;;;;;;;;4995367;28;20038;-56
2023/12/31 08:51:24;;;;;;;1.95;1.60;;;;;;;;;;4996000;28;20053;-57
2023/12/31 08:53:50;;;;;;;2.05;1.60;;;;;;;;;;4999306;28;20046;-56
2023/12/31 08:56:16;;;;;;;2.35;1.52;;;;;;;;;;4995430;28;20425;-58
2023/12/31 08:58:42;;;;;;;4.18;2.40;;;;;;;;;;4992333;28;20034;-56
2023/12/31 09:01:09;;;;;;;1.80;1.38;;;;;;;;;;4993245;28;20564;-58
2023/12/31 09:03:35;;;;;;;5.10;2.00;;;;;;;;;;4994135;28;20034;-57
2023/12/31 09:06:02;;;;;;;2.50;1.20;;;;;;;;;;4976119;28;20062;-56
2023/12/31 09:08:28;;;;;;;2.00;1.35;;;;;;;;;;4993259;28;20053;-57
2023/12/31 09:10:55;;;;;;;4.38;1.80;;;;;;;;;;4997121;28;20046;-57
2023/12/31 09:13:22;;;;;;;2.45;1.73;;;;;;;;;;4993158;28;20042;-58
2023/12/31 09:15:48;;;;;;;2.10;1.70;;;;;;;;;;4999153;28;20057;-57
2023/12/31 09:18:17;;;;;;;2.97;1.73;;;;;;;;;;4992846;28;20509;-57
2023/12/31 09:20:43;;;;;;;2.35;1.05;;;;;;;;;;4995969;28;20050;-57
2023/12/31 09:23:09;;;;;;;1.95;1.48;;;;;;;;;;4995620;28;20038;-56
2023/12/31 09:25:36;;;;;;;2.33;1.40;;;;;;;;;;4995548;28;20544;-56
2023/12/31 09:28:02;;;;;;;1.25;1.15;;;;;;;;;;4997655;28;20050;-56
2023/12/31 09:30:28;;;;;;;2.22;1.40;;;;;;;;;;4997028;28;20049;-56
2023/12/31 09:32:54;;;;;;;2.00;1.40;;;;;;;;;;4998703;28;20062;-57
2023/12/31 09:35:20;;;;;;;2.47;1.48;;;;;;;;;;4995534;28;20042;-57
2023/12/31 09:37:46;;;;;;;2.40;1.55;;;;;;;;;;4996162;28;20031;-56
2023/12/31 09:40:13;;;;;;;2.92;1.20;;;;;;;;;;4995825;28;20044;-56
2023/12/31 09:42:49;;;;;;;2.95;1.98;;;;;;;;;;4996119;28;20030;-57
2023/12/31 09:45:23;;;;;;;2.97;1.50;;;;;;;;;;4992274;28;20050;-54
2023/12/31 09:47:51;;;;;;;2.00;1.15;;;;;;;;;;4991443;28;20061;-54
2023/12/31 09:50:22;;;;;;;2.75;1.55;;;;;;;;;;4990531;28;20053;-52
2023/12/31 09:52:49;;;;;;;3.63;1.60;;;;;;;;;;4993210;28;20046;-56
2023/12/31 09:57:52;;;;;;;2.35;1.55;;;;;;;;;;4962837;28;20062;-60
2023/12/31 10:00:19;;;;;;;1.75;1.55;;;;;;;;;;4953104;28;20043;-60
2023/12/31 10:02:46;;;;;;;2.90;1.70;;;;;;;;;;4963728;28;20046;-60
2023/12/31 10:05:15;;;;;;;3.63;2.00;;;;;;;;;;4965649;28;20034;-60
2023/12/31 10:07:43;;;;;;;2.97;1.67;;;;;;;;;;4932426;28;20043;-60
2023/12/31 10:10:10;;;;;;;3.10;1.70;;;;;;;;;;4944738;28;20055;-60
2023/12/31 10:12:36;;;;;;;3.05;1.85;;;;;;;;;;4946865;28;20039;-59
2023/12/31 10:15:02;;;;;;;2.13;1.80;;;;;;;;;;4948486;28;20058;-60
2023/12/31 10:17:31;;;;;;;2.88;2.05;;;;;;;;;;4934135;29;20418;-60
2023/12/31 10:19:57;;;;;;;4.53;2.10;;;;;;;;;;4948391;28;20523;-60
2023/12/31 10:22:25;;;;;;;6.45;4.03;;;;;;;;;;4943518;28;20063;-60
2023/12/31 10:24:51;;;;;;;5.72;3.35;;;;;;;;;;4941930;28;20048;-60
2023/12/31 10:27:17;;;;;;;6.45;4.22;;;;;;;;;;4928336;29;20039;-59
2023/12/31 10:29:44;;;;;;;5.03;2.92;;;;;;;;;;4940989;28;20051;-59
2023/12/31 10:32:10;;;;;;;7.05;4.15;;;;;;;;;;4940246;28;20050;-60
2023/12/31 10:34:36;;;;;;;2.70;2.00;;;;;;;;;;4940366;28;20036;-59
2023/12/31 10:37:07;;;;;;;4.68;2.80;;;;;;;;;;4951744;28;20035;-59
2023/12/31 10:39:36;;;;;;;3.53;2.88;;;;;;;;;;4935290;28;20042;-59
2023/12/31 10:42:04;;;;;;;6.13;2.40;;;;;;;;;;4943369;28;20032;-59
2023/12/31 10:44:38;;;;;;;6.03;2.83;;;;;;;;;;4920472;29;20050;-59
2023/12/31 10:47:05;;;;;;;5.28;2.40;;;;;;;;;;4946407;28;20052;-59
2023/12/31 10:49:32;;;;;;;3.15;2.35;;;;;;;;;;4950943;28;20043;-60
2023/12/31 10:52:04;;;;;;;4.25;2.88;;;;;;;;;;4946974;28;20038;-59
2023/12/31 10:54:38;;;;;;;3.88;2.50;;;;;;;;;;4938519;28;20413;-59
2023/12/31 10:57:06;;;;;;;3.67;2.40;;;;;;;;;;4950686;28;20054;-59
2023/12/31 10:59:34;;;;;;;4.13;2.92;;;;;;;;;;4938667;28;20039;-59
2023/12/31 11:02:01;;;;;;;4.18;3.00;;;;;;;;;;4935428;28;20120;-60
2023/12/31 11:04:29;;;;;;;5.10;3.20;;;;;;;;;;4933975;28;20617;-59
2023/12/31 11:06:56;;;;;;;5.38;2.83;;;;;;;;;;4933507;28;20040;-59
2023/12/31 11:09:25;;;;;;;6.03;3.00;;;;;;;;;;4937764;28;20035;-59
2023/12/31 11:11:51;;;;;;;4.18;3.03;;;;;;;;;;4942720;28;20705;-60
2023/12/31 11:14:27;;;;;;;6.95;3.13;;;;;;;;;;4935592;28;20496;-59
2023/12/31 11:17:16;;;;;;;5.10;2.78;;;;;;;;;;4945209;28;20423;-59
2023/12/31 11:20:10;;;;;;;4.60;3.22;;;;;;;;;;4940546;28;20031;-59
2023/12/31 11:22:59;;;;;;;5.47;3.30;;;;;;;;;;4941086;28;20403;-59
2023/12/31 11:25:26;;;;;;;5.07;2.92;;;;;;;;;;4936179;28;20046;-59
2023/12/31 11:27:54;;;;;;;7.95;3.40;;;;;;;;;;4933528;28;20407;-60
2023/12/31 11:30:51;;;;;;;4.38;2.83;;;;;;;;;;4950512;28;20058;-60
2023/12/31 11:33:24;;;;;;;4.45;3.13;;;;;;;;;;4927953;28;20389;-59
2023/12/31 11:35:52;;;;;;;4.43;2.63;;;;;;;;;;4916152;28;20502;-60
2023/12/31 11:38:19;;;;;;;5.25;2.70;;;;;;;;;;4933537;28;20055;-60
2023/12/31 11:40:46;;;;;;;4.53;2.97;;;;;;;;;;4945618;28;20062;-60
2023/12/31 11:43:14;;;;;;;4.45;3.10;;;;;;;;;;4933088;28;20036;-60
2023/12/31 11:45:46;;;;;;;5.22;3.05;;;;;;;;;;4932023;28;20040;-60
2023/12/31 11:48:20;;;;;;;4.45;3.10;;;;;;;;;;4950579;28;20411;-60
2023/12/31 11:50:56;;;;;;;5.57;3.50;;;;;;;;;;4940212;28;20047;-59
2023/12/31 11:53:26;;;;;;;4.82;3.00;;;;;;;;;;4943158;28;20155;-60
2023/12/31 11:55:54;;;;;;;4.25;2.67;;;;;;;;;;4935082;28;20063;-60
2023/12/31 11:58:23;;;;;;;6.75;3.20;;;;;;;;;;4939897;28;20412;-59
2023/12/31 12:00:52;;;;;;;4.65;2.97;;;;;;;;;;4936710;28;20116;-60
2023/12/31 12:03:19;;;;;;;5.53;3.75;;;;;;;;;;4937601;28;20058;-60
2023/12/31 12:05:47;;;;;;;18.48;6.80;;;;;;;;;;4940732;28;20491;-60
2023/12/31 12:08:13;;;;;;;5.43;2.60;;;;;;;;;;4954137;28;20042;-60
2023/12/31 12:10:41;;;;;;;6.80;3.53;;;;;;;;;;4939471;28;20044;-60
2023/12/31 12:13:11;;;;;;;7.32;4.57;;;;;;;;;;4945128;28;20043;-60
2023/12/31 12:15:38;;;;;;;5.15;3.78;;;;;;;;;;4938519;28;20051;-60
2023/12/31 12:18:18;;;;;;;6.15;3.53;;;;;;;;;;4953975;28;20046;-61
2023/12/31 12:20:46;;;;;;;6.10;3.47;;;;;;;;;;4925558;28;20047;-62
2023/12/31 12:23:18;;;;;;;5.45;3.28;;;;;;;;;;4921712;29;20039;-61
2023/12/31 12:25:46;;;;;;;5.35;3.42;;;;;;;;;;4936431;28;20047;-61
2023/12/31 12:28:14;;;;;;;5.35;3.05;;;;;;;;;;4941541;28;20624;-62
2023/12/31 12:30:43;;;;;;;4.28;2.75;;;;;;;;;;4948925;28;20047;-61
2023/12/31 12:33:12;;;;;;;5.13;3.25;;;;;;;;;;4936228;28;20047;-61
2023/12/31 12:35:40;;;;;;;5.25;3.38;;;;;;;;;;4942735;28;20055;-61
2023/12/31 12:38:06;;;;;;;5.47;3.40;;;;;;;;;;4943437;28;20052;-61
2023/12/31 12:40:32;;;;;;;5.15;3.30;;;;;;;;;;4947391;28;20054;-60
2023/12/31 12:43:02;;;;;;;5.45;2.83;;;;;;;;;;4950783;28;20031;-60
2023/12/31 12:45:31;;;;;;;3.85;2.58;;;;;;;;;;4951759;28;20034;-60
2023/12/31 12:47:59;;;;;;;3.78;2.38;;;;;;;;;;4945662;28;20055;-60
2023/12/31 12:50:26;;;;;;;3.92;2.70;;;;;;;;;;4943182;28;20047;-60
2023/12/31 12:52:53;;;;;;;2.63;2.13;;;;;;;;;;4944664;28;20047;-60
2023/12/31 12:55:19;;;;;;;2.80;1.98;;;;;;;;;;4944588;28;20062;-60
2023/12/31 12:57:46;;;;;;;5.13;2.47;;;;;;;;;;4936660;28;20047;-61
2023/12/31 13:00:12;;;;;;;4.15;2.30;;;;;;;;;;4945103;28;20043;-60
2023/12/31 13:02:39;;;;;;;3.65;2.40;;;;;;;;;;4944042;28;20418;-60
2023/12/31 13:05:05;;;;;;;6.15;3.25;;;;;;;;;;4949229;28;20051;-60
2023/12/31 13:07:31;;;;;;;4.28;2.13;;;;;;;;;;4944783;28;20035;-60
2023/12/31 13:09:58;;;;;;;2.42;1.63;;;;;;;;;;4921850;28;20047;-61
2023/12/31 13:12:24;;;;;;;2.95;1.80;;;;;;;;;;4951265;28;20409;-60
2023/12/31 13:14:50;;;;;;;2.72;2.03;;;;;;;;;;4935658;28;20038;-61
2023/12/31 13:17:18;;;;;;;1.67;1.33;;;;;;;;;;4947122;28;20047;-60
2023/12/31 13:19:44;;;;;;;1.38;1.25;;;;;;;;;;4940332;28;20051;-60
2023/12/31 13:22:10;;;;;;;1.25;1.13;;;;;;;;;;4941557;28;20039;-59
2023/12/31 13:24:36;;;;;;;1.88;1.02;;;;;;;;;;4948417;28;20039;-61
2023/12/31 13:27:04;;;;;;;1.52;1.15;;;;;;;;;;4944717;28;20052;-60
2023/12/31 13:29:30;;;;;;;1.55;1.00;;;;;;;;;;4931705;29;20047;-59
2023/12/31 13:31:56;;;;;;;1.60;1.15;;;;;;;;;;4941529;28;20028;-60
2023/12/31 13:34:23;;;;;;;1.73;1.00;;;;;;;;;;4938744;28;20681;-60
2023/12/31 13:36:50;;;;;;;2.38;1.00;;;;;;;;;;4940391;28;20057;-60
2023/12/31 13:39:17;;;;;;;1.90;0.85;;;;;;;;;;4942614;28;20492;-60
2023/12/31 13:41:43;;;;;;;1.23;0.70;;;;;;;;;;4942352;28;20043;-60
2023/12/31 13:44:10;;;;;;;1.13;0.85;;;;;;;;;;4941227;28;20043;-60
2023/12/31 13:46:36;;;;;;;0.98;0.88;;;;;;;;;;4935516;28;20044;-60
2023/12/31 13:49:02;;;;;;;0.90;0.70;;;;;;;;;;4941555;28;20058;-60
2023/12/31 13:51:28;;;;;;;0.50;0.50;;;;;;;;;;4931508;28;20039;-60
2023/12/31 13:53:54;;;;;;;0.63;0.63;;;;;;;;;;4945085;28;20043;-60
2023/12/31 13:56:21;;;;;;;0.75;0.60;;;;;;;;;;4938503;28;20051;-62
2023/12/31 13:58:47;;;;;;;1.42;0.77;;;;;;;;;;4942288;28;20031;-61
2023/12/31 14:01:13;;;;;;;1.70;0.80;;;;;;;;;;4939029;28;20051;-60
2023/12/31 14:03:40;;;;;;;1.05;0.60;;;;;;;;;;4941728;28;20035;-60
2023/12/31 14:06:06;;;;;;;0.85;0.70;;;;;;;;;;4941072;28;20050;-60
2023/12/31 14:08:32;;;;;;;1.15;0.80;;;;;;;;;;4934037;28;20113;-61
2023/12/31 14:10:58;;;;;;;1.63;0.90;;;;;;;;;;4942226;28;20047;-60
2023/12/31 14:13:24;;;;;;;3.13;1.00;;;;;;;;;;4941070;28;20059;-60
2023/12/31 14:15:51;;;;;;;1.38;1.20;;;;;;;;;;4934146;28;20039;-61
2023/12/31 14:18:17;;;;;;;1.45;1.00;;;;;;;;;;4940229;28;20032;-60
2023/12/31 14:20:44;;;;;;;1.95;1.10;;;;;;;;;;4940423;28;20066;-59
2023/12/31 14:23:10;;;;;;;1.10;1.00;;;;;;;;;;4939074;28;20051;-60
2023/12/31 14:25:36;;;;;;;3.10;2.00;;;;;;;;;;4947171;28;20055;-60
2023/12/31 14:28:03;;;;;;;4.63;2.28;;;;;;;;;;4937808;28;20028;-61
2023/12/31 14:30:29;;;;;;;4.40;2.15;;;;;;;;;;4939410;28;20056;-60
2023/12/31 14:32:56;;;;;;;1.40;1.30;;;;;;;;;;4940737;28;20039;-60
2023/12/31 14:35:22;;;;;;;4.40;2.50;;;;;;;;;;4941511;28;20046;-60
2023/12/31 14:37:48;;;;;;;1.50;0.90;;;;;;;;;;4947011;28;20107;-60
2023/12/31 14:40:14;;;;;;;2.72;1.70;;;;;;;;;;4942480;28;20149;-60
2023/12/31 14:42:41;;;;;;;0.80;0.60;;;;;;;;;;4934330;28;20052;-60
2023/12/31 14:45:08;;;;;;;0.70;0.70;;;;;;;;;;4942382;28;20046;-60